• Join FlightAware (Why Join?)
  • Login
  • US Flag 
01:00PM EDT


 

Airport Tracker/Info


-or-


 

Live Flight TrackerFlight Track Log ✈ UAL3787 ✈ 12-Sep-2013 ✈ KORF - KORD

Flight Track Log - Related Links

Times and Time Zones

All times are in EDT time to prevent confusion due to time zone crossing. See the UAL3787 flight status page for this flight to view local times or setup timezone preferences in your user account.

Time Position Orientation Groundspeed Altitude Reporting Facility
EDT Latitude Longitude Course Direction KTS MPH feet Rate Location/Type
06:10AM 36.8825 -76.2178 212° Southwest 150 173 700  Level Washington Center
06:10AM 36.8761 -76.2228 212° Southwest 148 170 1,300 1,860 Climbing Washington Center
06:11AM 36.8344 -76.2589 215° Southwest 208 239 3,000 1,740 Climbing Washington Center
06:12AM 36.7986 -76.3233 235° Southwest 268 308 4,900 2,280 Climbing Washington Center
06:13AM 36.8250 -76.4119 290° West 273 314 7,700 2,520 Climbing Washington Center
06:14AM 36.8597 -76.5056 295° West 295 339 10,200 1,860 Climbing Washington Center
06:15AM 36.8903 -76.6022 292° West 300 345 11,600 1,740 Climbing Washington Center
06:16AM 36.9269 -76.7117 293° West 314 361 13,700 1,920 Climbing Washington Center
06:17AM 36.9656 -76.8214 294° West 338 389 15,500 1,800 Climbing Washington Center
06:18AM 37.0039 -76.9392 292° West 357 411 17,400 1,860 Climbing Washington Center
06:19AM 37.0442 -77.0569 293° West 362 417 19,300 1,740 Climbing Washington Center
06:20AM 37.0697 -77.1822 284° West 372 428 20,900 1,380 Climbing Washington Center
06:21AM 37.0931 -77.3131 283° West 377 434 22,100 1,320 Climbing Washington Center
06:22AM 37.1161 -77.4489 282° West 389 448 23,500 1,320 Climbing Washington Center
06:23AM 37.1408 -77.5875 283° West 401 461 24,900 1,200 Climbing Washington Center
06:24AM 37.1656 -77.7264 283° West 406 467 26,000 1,020 Climbing Washington Center
06:25AM 37.2069 -77.8606 291° West 416 479 27,000 1,020 Climbing Washington Center
06:26AM 37.2775 -77.9828 306° West 416 479 28,100 1,020 Climbing Washington Center
06:27AM 37.3481 -78.1050 306° West 422 486 29,100 840 Climbing Washington Center
06:28AM 37.4225 -78.2306 307° West 440 506 29,800 840 Climbing Washington Center
06:29AM 37.4889 -78.3453 306° West 445 512 30,900 1,140 Climbing Washington Center
06:30AM 37.5569 -78.4708 304° West 445 512 32,100 1,200 Climbing Washington Center
06:31AM 37.6247 -78.5967 304° West 445 512 33,300 1,200 Climbing Washington Center
06:32AM 37.7003 -78.7361 304° West 435 501 34,600 1,080 Climbing Washington Center
06:33AM 37.7681 -78.8572 305° West 430 495 35,600 660 Climbing Washington Center
06:34AM 37.8356 -78.9811 305° West 430 495 36,000 180 Climbing Washington Center
06:35AM 37.8989 -79.0944 305° West 430 495 36,000  Level Washington Center
06:36AM 37.9789 -79.2167 310° West 442 509 36,000  Level Washington Center
06:37AM 38.0564 -79.3367 309° West 448 516 36,000  Level Washington Center
06:38AM 38.1400 -79.4622 310° West 448 516 36,000  Level Washington Center
06:39AM 38.2175 -79.5797 310° West 435 501 36,000  Level Washington Center
06:40AM 38.2928 -79.7003 309° West 435 501 36,000  Level Washington Center
06:41AM 38.3622 -79.8022 311° West 435 501 36,100 600 Climbing Washington Center
06:42AM 38.4372 -79.9178 310° West 435 501 37,200 900 Climbing Washington Center
06:43AM 38.5103 -80.0308 310° West 425 489 38,000 180 Climbing Washington Center
06:45AM 38.7033 -80.3283 310° West 428 493 38,000  Level Indianapolis Center
06:46AM 38.7797 -80.4456 310° West 429 494 38,000  Level Indianapolis Center
06:47AM 38.8547 -80.5619 310° West 426 490 38,000  Level Indianapolis Center
06:48AM 38.9275 -80.6756 309° West 418 481 38,000  Level Indianapolis Center
06:49AM 39.0006 -80.7914 309° West 418 481 38,000  Level Indianapolis Center
06:50AM 39.0583 -80.9222 300° West 423 487 38,000  Level Indianapolis Center
06:51AM 39.1133 -81.0528 299° West 420 483 38,000  Level Indianapolis Center
06:53AM 39.1672 -81.1844 298° West 418 481 38,000  Level Indianapolis Center
06:54AM 39.2217 -81.3147 298° West 416 479 38,000  Level Indianapolis Center
06:55AM 39.2739 -81.4425 298° West 408 470 38,000  Level Indianapolis Center
06:56AM 39.3244 -81.5669 298° West 397 457 38,000  Level Indianapolis Center
06:57AM 39.3733 -81.6897 297° West 389 448 38,000  Level Indianapolis Center
06:58AM 39.4239 -81.8122 298° West 387 445 38,000  Level Indianapolis Center
06:59AM 39.4814 -81.9578 297° West 381 438 38,000  Level Indianapolis Center
07:00AM 39.5303 -82.0803 297° West 383 441 38,000  Level Indianapolis Center
07:01AM 39.5806 -82.2050 298° West 383 441 38,000  Level Indianapolis Center
07:02AM 39.6289 -82.3283 297° West 384 442 38,000  Level Indianapolis Center
07:03AM 39.6769 -82.4506 297° West 383 441 38,000  Level Indianapolis Center
07:04AM 39.7253 -82.5711 298° West 380 437 38,000  Level Indianapolis Center
07:05AM 39.7722 -82.6928 297° West 378 435 38,000  Level Indianapolis Center
07:06AM 39.8194 -82.8131 297° West 376 433 38,000  Level Indianapolis Center
07:07AM 39.8497 -82.9386 287° West 370 426 38,000  Level Indianapolis Center
07:08AM 39.8658 -83.0728 279° West 377 434 38,000  Level Indianapolis Center
07:09AM 39.8817 -83.2047 279° West 372 428 38,000  Level Indianapolis Center
07:10AM 39.8981 -83.3369 279° West 374 430 38,000  Level Indianapolis Center
07:11AM 39.9136 -83.4736 278° West 376 433 38,000  Level Indianapolis Center
07:12AM 39.9308 -83.6217 279° West 371 427 38,000  Level Indianapolis Center
07:13AM 39.9461 -83.7536 279° West 372 428 38,000  Level Indianapolis Center
07:14AM 39.9600 -83.8828 278° West 366 421 38,100  Climbing Indianapolis Center
07:15AM 39.9742 -84.0153 278° West 369 425 38,000 -60 Descending Indianapolis Center
07:16AM 39.9903 -84.1508 279° West 376 433 38,000  Level Indianapolis Center
07:17AM 40.0056 -84.2903 278° West 385 443 38,000  Level Indianapolis Center
07:18AM 40.0497 -84.4167 295° West 385 443 38,000 -540 Level Indianapolis Center
07:19AM 40.1539 -84.5200 323° Northwest 393 452 37,000 -1,260 Descending Indianapolis Center
07:20AM 40.2522 -84.5939 330° Northwest 404 465 35,500 -1,380 Descending Indianapolis Center
07:21AM 40.3503 -84.6708 329° Northwest 409 471 34,300 -780 Descending Indianapolis Center
07:22AM 40.4453 -84.7467 329° Northwest 402 463 34,000 -180 Descending Indianapolis Center
07:23AM 40.5394 -84.8236 328° Northwest 399 459 34,000  Level Indianapolis Center
07:24AM 40.6342 -84.9008 328° Northwest 401 461 34,000 -180 Level Indianapolis Center
07:25AM 40.7253 -84.9756 328° Northwest 405 466 33,700 -960 Descending Indianapolis Center
07:26AM 40.8250 -85.0594 328° Northwest 426 490 32,100 -1,680 Descending Indianapolis Center
07:27AM 40.9308 -85.2047 314° West 460 529 30,300 -1,680 Descending Indianapolis Center
07:28AM 40.9992 -85.3386 304° West 447 514 28,800 -1,500 Descending Indianapolis Center
07:29AM 41.0672 -85.4664 305° West 434 499 27,300 -1,500 Descending Indianapolis Center
07:30AM 41.1350 -85.5947 305° West 429 494 25,800 -1,140 Descending Indianapolis Center
07:31AM 41.1972 -85.7175 304° West 410 472 25,000 -420 Descending Indianapolis Center
07:32AM 41.2581 -85.8353 305° West 394 453 25,000  Level Indianapolis Center
07:33AM 41.2775 -85.9719 281° West 384 442 25,000  Level Indianapolis Center
07:34AM 41.2917 -86.1106 278° West 381 438 25,000 -420 Level Indianapolis Center
07:35AM 41.3119 -86.2767 279° West 382 440 24,200 -1,440 Descending Indianapolis Center
07:36AM 41.3269 -86.4119 278° West 375 432 22,100 -2,220 Descending Indianapolis Center
07:38AM 41.3617 -86.5783 286° West 376 433 19,000 -2,340 Descending Chicago Center
07:39AM 41.4481 -86.6547 326° Northwest 378 435 16,600 -2,400 Descending Chicago Center
07:40AM 41.5525 -86.7236 334° Northwest 356 410 14,100 -2,160 Descending Chicago Center
07:41AM 41.6353 -86.7792 333° Northwest 345 397 12,200 -1,080 Descending Chicago Center
07:42AM 41.7236 -86.8028 349° North 335 386 12,000 -120 Descending Chicago Center
07:43AM 41.8178 -86.8183 353° North 341 392 12,000 -120 Level Chicago Center
07:44AM 41.8942 -86.8703 333° Northwest 319 367 11,800 -900 Descending Chicago Center
07:45AM 41.9325 -86.9764 296° West 317 365 10,200 -1,080 Descending Chicago Center
07:46AM 41.9750 -87.0867 297° West 281 323 9,600 -600 Descending Chicago Center
07:47AM 41.9836 -87.1822 277° West 263 303 9,000 -840 Descending Chicago Center
07:48AM 41.9836 -87.2797 270° West 262 302 8,000 -1,020 Descending Chicago Center
07:49AM 41.9831 -87.3775 270° West 264 304 7,000 -600 Descending Chicago Center
07:50AM 41.9836 -87.4744 270° West 262 302 6,800 -720 Descending Chicago Center
07:51AM 41.9828 -87.5528 269° West 219 252 5,600 -1,260 Descending Chicago Center
07:52AM 41.9833 -87.6331 271° West 215 247 4,300 -1,320 Descending Chicago Center
07:53AM 41.9833 -87.6833 270° West 216 249 3,600 -1,200 Descending Chicago TRACON
07:54AM 41.9833 -87.7667 270° West 205 236 2,500 -1,080 Descending Chicago TRACON
07:54AM 41.9833 -87.8333 270° West 154 177 1,600 -840 Descending Chicago TRACON
07:55AM 41.9833 -87.8833 270° West 139 160 900 -720 Descending Chicago TRACON